createdAt,value
2019-04-25T00:00:43.182Z,62.95
2019-04-25T00:01:43.971Z,62.95
2019-04-25T00:02:43.985Z,63.05
2019-04-25T00:03:43.676Z,62.95
2019-04-25T00:04:43.470Z,62.74
2019-04-25T00:05:43.584Z,62.95
2019-04-25T00:06:43.942Z,63.15
2019-04-25T00:07:43.825Z,63.15
2019-04-25T00:08:44.039Z,63.05
2019-04-25T00:09:43.978Z,63.05
2019-04-25T00:10:43.799Z,63.15
2019-04-25T00:11:43.654Z,63.12
2019-04-25T00:12:43.589Z,63.15
2019-04-25T00:13:44.008Z,63.15
2019-04-25T00:14:43.723Z,63.15
2019-04-25T00:15:44.891Z,63.15
2019-04-25T00:16:44.034Z,62.95
2019-04-25T00:17:43.328Z,63.65
2019-04-25T00:18:43.104Z,64.06
2019-04-25T00:19:43.330Z,63.85
2019-04-25T00:20:43.609Z,64.16
2019-04-25T00:21:43.353Z,64.36
2019-04-25T00:22:43.671Z,64.16
2019-04-25T00:23:43.698Z,64.26
2019-04-25T00:24:43.310Z,64.26
2019-04-25T00:25:45.852Z,64.16
2019-04-25T00:26:44.102Z,64.67
2019-04-25T00:27:43.574Z,64.56
2019-04-25T00:28:44.355Z,64.06
2019-04-25T00:29:43.904Z,64.36
2019-04-25T00:30:44.414Z,64.67
2019-04-25T00:31:43.714Z,64.56
2019-04-25T00:32:44.093Z,64.36
2019-04-25T00:33:44.200Z,64.67
2019-04-25T00:34:44.242Z,64.36
2019-04-25T00:35:44.579Z,64.16
2019-04-25T00:36:43.493Z,64.36
2019-04-25T00:37:44.327Z,64.56
2019-04-25T00:38:45.476Z,64.56
2019-04-25T00:39:44.879Z,64.56
2019-04-25T00:40:43.510Z,64.87
2019-04-25T00:41:44.995Z,64.76
2019-04-25T00:42:43.601Z,64.46
2019-04-25T00:43:44.001Z,64.56
2019-04-25T00:44:44.585Z,64.56
2019-04-25T00:45:44.314Z,64.46
2019-04-25T00:46:46.354Z,65.27
2019-04-25T00:47:44.606Z,64.97
2019-04-25T00:48:43.441Z,66.18
2019-04-25T00:49:44.037Z,65.91
2019-04-25T00:50:43.328Z,67.02
2019-04-25T00:51:43.456Z,67.32
2019-04-25T00:52:43.599Z,67.39
2019-04-25T00:53:43.422Z,67.80
2019-04-25T00:54:43.149Z,68.13
2019-04-25T00:55:43.124Z,67.32
2019-04-25T00:56:45.642Z,67.90
2019-04-25T00:57:43.508Z,67.22
2019-04-25T00:58:43.949Z,68.13
2019-04-25T00:59:43.915Z,67.72
2019-04-25T01:00:43.347Z,67.72
2019-04-25T01:01:44.208Z,68.37
2019-04-25T01:02:44.023Z,68.03
2019-04-25T01:03:43.492Z,68.47
2019-04-25T01:04:43.725Z,68.87
2019-04-25T01:05:43.385Z,69.27
2019-04-25T01:06:42.281Z,69.18
2019-04-25T01:07:42.331Z,69.18
2019-04-25T01:08:42.253Z,69.18
2019-04-25T01:09:42.427Z,69.18
2019-04-25T01:10:42.234Z,68.63
2019-04-25T01:11:42.496Z,69.18
2019-04-25T01:12:42.209Z,69.78
2019-04-25T01:13:42.334Z,69.38
2019-04-25T01:14:42.187Z,69.48
2019-04-25T01:15:42.559Z,69.38
2019-04-25T01:16:42.173Z,69.55
2019-04-25T01:17:42.156Z,69.27
2019-04-25T01:18:50.956Z,69.48
2019-04-25T01:20:24.026Z,69.48
2019-04-25T01:21:25.262Z,69.18
2019-04-25T01:22:23.767Z,69.14
2019-04-25T01:23:23.800Z,69.68
2019-04-25T01:24:24.102Z,69.18
2019-04-25T01:25:23.729Z,69.58
2019-04-25T01:26:24.029Z,69.48
2019-04-25T01:27:33.301Z,69.58
2019-04-25T01:29:05.883Z,69.48
2019-04-25T01:30:06.155Z,69.68
2019-04-25T01:31:05.869Z,70.36
2019-04-25T01:32:05.826Z,69.85
2019-04-25T01:33:05.810Z,69.78
2019-04-25T01:34:05.809Z,69.89
2019-04-25T01:35:05.792Z,70.89
2019-04-25T01:36:05.807Z,70.89
2019-04-25T01:37:05.765Z,70.69
2019-04-25T01:38:05.759Z,70.09
2019-04-25T01:39:05.744Z,70.29
2019-04-25T01:40:05.740Z,69.68
2019-04-25T01:41:05.732Z,69.78
2019-04-25T01:42:05.733Z,70.09
2019-04-25T01:43:05.698Z,70.59
2019-04-25T01:44:05.769Z,70.59
2019-04-25T01:45:05.683Z,70.18
2019-04-25T01:46:05.668Z,70.09
2019-04-25T01:47:05.672Z,70.39
2019-04-25T01:48:05.683Z,70.79
2019-04-25T01:49:05.640Z,69.95
2019-04-25T01:50:05.625Z,69.58
2019-04-25T01:51:05.621Z,69.98
2019-04-25T01:52:05.607Z,69.18
2019-04-25T01:53:05.616Z,69.38
2019-04-25T01:54:05.609Z,69.38
2019-04-25T01:55:05.670Z,69.27
2019-04-25T01:56:07.774Z,69.38
2019-04-25T01:57:05.566Z,69.34
2019-04-25T01:58:05.562Z,69.68
2019-04-25T01:59:05.561Z,69.55
2019-04-25T02:00:05.540Z,69.34
2019-04-25T02:01:05.525Z,69.14
2019-04-25T02:02:06.744Z,69.24
2019-04-25T02:03:05.523Z,69.07
2019-04-25T02:04:05.513Z,69.24
2019-04-25T02:05:05.506Z,69.04
2019-04-25T02:06:05.550Z,68.94
2019-04-25T02:07:05.556Z,69.14
2019-04-25T02:08:06.920Z,69.24
2019-04-25T02:09:14.219Z,68.94
2019-04-25T02:10:47.610Z,69.14
2019-04-25T02:11:56.827Z,68.94
2019-04-25T02:13:29.834Z,69.14
2019-04-25T02:14:29.810Z,69.01
2019-04-25T02:15:29.790Z,69.11
2019-04-25T02:16:29.828Z,69.24
2019-04-25T02:17:29.762Z,69.21
2019-04-25T02:18:29.774Z,68.91
2019-04-25T02:19:36.892Z,69.11
2019-04-25T02:21:11.399Z,69.31
2019-04-25T02:22:11.376Z,69.31
2019-04-25T02:23:55.416Z,69.21
2019-04-25T02:24:54.968Z,69.21
2019-04-25T02:26:06.753Z,69.51
2019-04-25T02:26:55.246Z,69.21
2019-04-25T02:27:55.051Z,69.51
2019-04-25T02:28:55.190Z,69.51
2019-04-25T02:29:55.196Z,69.82
2019-04-25T02:30:57.357Z,69.51
2019-04-25T02:31:58.498Z,69.62
2019-04-25T02:32:58.131Z,69.31
2019-04-25T02:34:01.163Z,69.62
2019-04-25T02:35:35.571Z,70.22
2019-04-25T02:36:35.566Z,70.66
2019-04-25T02:37:35.539Z,70.42
2019-04-25T02:38:35.526Z,70.66
2019-04-25T02:39:37.354Z,70.46
2019-04-25T02:40:35.500Z,71.06
2019-04-25T02:41:35.499Z,71.26
2019-04-25T02:42:35.478Z,71.26
2019-04-25T02:43:35.465Z,71.57
2019-04-25T02:44:35.456Z,71.37
2019-04-25T02:45:35.444Z,71.70
2019-04-25T02:46:37.282Z,71.67
2019-04-25T02:47:35.431Z,71.57
2019-04-25T02:48:35.415Z,72.51
2019-04-25T02:49:38.893Z,72.51
2019-04-25T02:50:35.385Z,72.41
2019-04-25T02:51:35.377Z,72.21
2019-04-25T02:52:35.367Z,72.21
2019-04-25T02:53:37.409Z,72.21
2019-04-25T02:54:35.342Z,72.41
2019-04-25T02:55:37.571Z,72.72
2019-04-25T02:56:38.684Z,72.81
2019-04-25T02:57:35.310Z,72.31
2019-04-25T02:58:35.302Z,72.61
2019-04-25T02:59:36.994Z,72.31
2019-04-25T03:00:51.648Z,72.01
2019-04-25T03:01:36.266Z,72.81
2019-04-25T03:02:36.999Z,73.02
2019-04-25T03:03:35.252Z,73.12
2019-04-25T03:04:35.246Z,72.78
2019-04-25T03:05:35.673Z,72.81
2019-04-25T03:06:35.326Z,72.81
2019-04-25T03:07:35.199Z,72.92
2019-04-25T03:08:35.556Z,73.22
2019-04-25T03:09:35.421Z,73.05
2019-04-25T03:10:35.165Z,73.63
2019-04-25T03:11:35.167Z,73.63
2019-04-25T03:12:36.705Z,73.76
2019-04-25T03:13:35.132Z,73.36
2019-04-25T03:14:35.471Z,73.76
2019-04-25T03:15:36.589Z,73.76
2019-04-25T03:16:35.098Z,73.96
2019-04-25T03:17:35.087Z,73.76
2019-04-25T03:18:35.076Z,74.07
2019-04-25T03:19:35.070Z,73.56
2019-04-25T03:20:35.556Z,73.52
2019-04-25T03:21:35.444Z,72.44
2019-04-25T03:22:35.034Z,73.56
2019-04-25T03:23:35.461Z,73.76
2019-04-25T03:24:35.245Z,73.25
2019-04-25T03:25:35.006Z,72.95
2019-04-25T03:26:40.394Z,73.66
2019-04-25T03:27:35.976Z,73.46
2019-04-25T03:28:34.968Z,73.36
2019-04-25T03:29:34.950Z,73.36
2019-04-25T03:30:35.628Z,73.15
2019-04-25T03:31:35.167Z,72.95
2019-04-25T03:32:35.518Z,73.15
2019-04-25T03:33:37.805Z,72.85
2019-04-25T03:34:35.278Z,71.23
2019-04-25T03:35:34.890Z,72.14
2019-04-25T03:36:34.880Z,72.04
2019-04-25T03:37:35.217Z,71.03
2019-04-25T03:38:34.862Z,71.64
2019-04-25T03:39:34.848Z,70.83
2019-04-25T03:40:34.838Z,70.83
2019-04-25T03:41:34.818Z,71.44
2019-04-25T03:42:34.824Z,71.33
2019-04-25T03:43:34.797Z,71.37
2019-04-25T03:44:34.783Z,70.96
2019-04-25T03:45:34.774Z,70.73
2019-04-25T03:46:34.765Z,70.02
2019-04-25T03:47:34.758Z,69.95
2019-04-25T03:48:36.840Z,70.36
2019-04-25T03:49:34.736Z,70.05
2019-04-25T03:50:34.718Z,70.42
2019-04-25T03:51:34.711Z,70.12
2019-04-25T03:52:34.913Z,69.61
2019-04-25T03:53:34.691Z,69.10
2019-04-25T03:54:34.680Z,69.21
2019-04-25T03:55:35.916Z,69.10
2019-04-25T03:56:34.652Z,68.84
2019-04-25T03:57:34.647Z,69.01
2019-04-25T03:58:34.636Z,69.44
2019-04-25T03:59:34.652Z,69.44
2019-04-25T04:00:36.448Z,69.74
2019-04-25T04:01:34.610Z,68.94
2019-04-25T04:02:34.595Z,69.04
2019-04-25T04:03:34.578Z,69.44
2019-04-25T04:04:34.572Z,69.24
2019-04-25T04:05:41.696Z,69.04
2019-04-25T04:07:16.711Z,68.77
2019-04-25T04:08:24.384Z,69.14
2019-04-25T04:09:24.178Z,69.04
2019-04-25T04:10:58.349Z,69.27
2019-04-25T04:11:58.314Z,69.27
2019-04-25T04:13:40.432Z,69.37
2019-04-25T04:14:39.961Z,69.17
2019-04-25T04:16:23.172Z,69.07
2019-04-25T04:17:21.597Z,68.97
2019-04-25T04:19:04.912Z,69.68
2019-04-25T04:20:03.938Z,69.48
2019-04-25T04:21:45.876Z,69.37
2019-04-25T04:22:45.860Z,69.88
2019-04-25T04:23:45.864Z,69.68
2019-04-25T04:24:45.846Z,69.48
2019-04-25T04:25:45.835Z,69.74
2019-04-25T04:26:45.818Z,69.57
2019-04-25T04:27:45.810Z,69.44
2019-04-25T04:28:45.798Z,69.34
2019-04-25T04:29:45.789Z,69.54
2019-04-25T04:30:45.775Z,69.44
2019-04-25T04:31:45.771Z,69.54
2019-04-25T04:32:45.758Z,69.48
2019-04-25T04:33:45.771Z,69.98
2019-04-25T04:34:45.748Z,70.59
2019-04-25T04:35:45.722Z,70.29
2019-04-25T04:36:46.647Z,70.49
2019-04-25T04:37:45.704Z,70.69
2019-04-25T04:38:45.706Z,70.29
2019-04-25T04:39:45.676Z,69.88
2019-04-25T04:40:45.677Z,70.08
2019-04-25T04:41:45.659Z,70.59
2019-04-25T04:42:45.659Z,70.59
2019-04-25T04:43:45.644Z,70.49
2019-04-25T04:44:45.623Z,70.79
2019-04-25T04:45:45.804Z,71.00
2019-04-25T04:46:45.611Z,71.20
2019-04-25T04:47:45.591Z,71.23
2019-04-25T04:48:45.580Z,71.23
2019-04-25T04:49:45.570Z,71.53
2019-04-25T04:50:45.553Z,71.64
2019-04-25T04:51:45.551Z,71.44
2019-04-25T04:52:45.538Z,71.44
2019-04-25T04:53:45.527Z,71.94
2019-04-25T04:54:45.513Z,72.04
2019-04-25T04:55:45.500Z,72.34
2019-04-25T04:56:45.497Z,71.84
2019-04-25T04:57:45.485Z,71.13
2019-04-25T04:58:45.467Z,71.73
2019-04-25T04:59:45.466Z,71.23
2019-04-25T05:00:45.449Z,70.83
2019-04-25T05:01:45.445Z,71.03
2019-04-25T05:02:45.432Z,71.73
2019-04-25T05:03:45.423Z,70.93
2019-04-25T05:04:45.407Z,71.44
2019-04-25T05:05:45.403Z,70.62
2019-04-25T05:06:45.392Z,70.21
2019-04-25T05:07:45.373Z,69.92
2019-04-25T05:08:45.367Z,70.62
2019-04-25T05:09:45.364Z,69.71
2019-04-25T05:10:45.338Z,69.41
2019-04-25T05:11:45.336Z,70.05
2019-04-25T05:12:45.323Z,70.56
2019-04-25T05:13:45.310Z,70.25
2019-04-25T05:14:45.304Z,69.13
2019-04-25T05:15:45.283Z,69.44
2019-04-25T05:16:45.277Z,70.05
2019-04-25T05:17:45.267Z,70.96
2019-04-25T05:18:45.261Z,71.26
2019-04-25T05:19:45.255Z,70.45
2019-04-25T05:20:45.237Z,70.15
2019-04-25T05:21:45.643Z,70.05
2019-04-25T05:22:45.230Z,69.92
2019-04-25T05:23:45.205Z,70.15
2019-04-25T05:24:45.198Z,69.44
2019-04-25T05:25:45.180Z,69.34
2019-04-25T05:26:45.170Z,69.34
2019-04-25T05:27:57.842Z,69.95
2019-04-25T05:28:46.149Z,69.54
2019-04-25T05:29:45.137Z,69.64
2019-04-25T05:30:45.135Z,69.95
2019-04-25T05:31:45.577Z,69.64
2019-04-25T05:32:45.170Z,70.76
2019-04-25T05:33:45.095Z,70.12
2019-04-25T05:34:46.180Z,69.24
2019-04-25T05:35:45.073Z,69.24
2019-04-25T05:36:45.079Z,69.24
2019-04-25T05:37:45.046Z,69.34
2019-04-25T05:38:45.192Z,69.71
2019-04-25T05:39:45.035Z,69.51
2019-04-25T05:40:45.019Z,69.44
2019-04-25T05:41:45.003Z,69.10
2019-04-25T05:42:44.990Z,69.10
2019-04-25T05:43:44.982Z,68.90
2019-04-25T05:44:44.967Z,69.00
2019-04-25T05:45:44.963Z,68.80
2019-04-25T05:46:45.329Z,68.70
2019-04-25T05:47:44.937Z,69.10
2019-04-25T05:48:44.925Z,68.29
2019-04-25T05:49:44.918Z,68.09
2019-04-25T05:50:44.900Z,67.89
2019-04-25T05:51:44.899Z,67.89
2019-04-25T05:52:45.940Z,68.40
2019-04-25T05:53:47.059Z,68.49
2019-04-25T05:54:44.860Z,68.49
2019-04-25T05:55:44.849Z,67.48
2019-04-25T05:56:44.846Z,67.38
2019-04-25T05:57:49.573Z,67.14
2019-04-25T05:58:45.815Z,67.08
2019-04-25T05:59:44.803Z,67.08
2019-04-25T06:00:44.795Z,67.45
2019-04-25T06:01:44.782Z,67.05
2019-04-25T06:02:46.183Z,66.94
2019-04-25T06:03:44.775Z,67.14
2019-04-25T06:04:44.745Z,66.64
2019-04-25T06:05:44.743Z,66.94
2019-04-25T06:06:44.731Z,66.64
2019-04-25T06:07:44.711Z,67.01
2019-04-25T06:08:44.717Z,66.91
2019-04-25T06:09:44.738Z,65.90
2019-04-25T06:10:45.231Z,66.00
2019-04-25T06:11:44.674Z,65.67
2019-04-25T06:12:44.662Z,66.61
2019-04-25T06:13:44.655Z,65.77
2019-04-25T06:14:44.635Z,66.61
2019-04-25T06:15:44.627Z,66.17
2019-04-25T06:16:44.618Z,66.07
2019-04-25T06:17:44.605Z,66.27
2019-04-25T06:18:44.597Z,66.27
2019-04-25T06:19:44.584Z,65.16
2019-04-25T06:20:44.575Z,65.56
2019-04-25T06:21:44.557Z,65.06
2019-04-25T06:22:44.552Z,65.26
2019-04-25T06:23:46.076Z,65.43
2019-04-25T06:24:44.556Z,64.83
2019-04-25T06:25:44.532Z,64.62
2019-04-25T06:26:44.510Z,64.90
2019-04-25T06:27:51.177Z,65.13
2019-04-25T06:28:53.661Z,64.83
2019-04-25T06:29:57.332Z,64.62
2019-04-25T06:30:45.462Z,64.49
2019-04-25T06:31:44.456Z,63.99
2019-04-25T06:32:44.457Z,62.87
2019-04-25T06:33:44.479Z,63.28
2019-04-25T06:34:44.479Z,63.28
2019-04-25T06:35:44.415Z,63.18
2019-04-25T06:36:44.399Z,63.92
2019-04-25T06:37:44.386Z,64.32
2019-04-25T06:38:44.413Z,64.59
2019-04-25T06:39:44.368Z,64.70
2019-04-25T06:40:44.355Z,64.79
2019-04-25T06:41:44.371Z,63.41
2019-04-25T06:42:46.611Z,64.62
2019-04-25T06:43:44.412Z,65.23
2019-04-25T06:44:44.310Z,64.12
2019-04-25T06:45:44.311Z,63.08
2019-04-25T06:46:44.294Z,62.98
2019-04-25T06:47:44.363Z,63.18
2019-04-25T06:48:45.621Z,63.31
2019-04-25T06:49:44.275Z,63.10
2019-04-25T06:50:44.249Z,62.77
2019-04-25T06:51:46.094Z,61.90
2019-04-25T06:52:44.229Z,63.10
2019-04-25T06:53:44.213Z,62.19
2019-04-25T06:54:44.207Z,62.98
2019-04-25T06:55:44.992Z,62.50
2019-04-25T06:56:44.210Z,64.02
2019-04-25T06:57:44.211Z,63.61
2019-04-25T06:58:44.166Z,63.01
2019-04-25T06:59:44.149Z,63.10
2019-04-25T07:00:57.198Z,62.98
2019-04-25T07:01:45.127Z,61.96
2019-04-25T07:02:44.112Z,61.46
2019-04-25T07:03:44.281Z,62.07
2019-04-25T07:04:45.642Z,62.16
2019-04-25T07:05:44.087Z,60.75
2019-04-25T07:06:45.469Z,60.55
2019-04-25T07:07:45.464Z,61.56
2019-04-25T07:08:44.733Z,61.76
2019-04-25T07:09:44.073Z,60.35
2019-04-25T07:10:44.632Z,59.64
2019-04-25T07:11:44.239Z,59.91
2019-04-25T07:12:51.147Z,60.22
2019-04-25T07:14:26.719Z,59.51
2019-04-25T07:15:26.946Z,58.47
2019-04-25T07:16:26.049Z,58.34
2019-04-25T07:17:25.860Z,56.57
2019-04-25T07:18:31.210Z,55.31
2019-04-25T07:19:28.263Z,53.25
2019-04-25T07:20:27.004Z,53.55
2019-04-25T07:21:25.942Z,54.58
2019-04-25T07:22:26.031Z,54.10
2019-04-25T07:23:25.550Z,53.42
2019-04-25T07:24:26.902Z,53.45
2019-04-25T07:25:27.282Z,54.25
2019-04-25T07:26:26.871Z,54.58
2019-04-25T07:27:26.588Z,54.81
2019-04-25T07:28:29.042Z,55.59
2019-04-25T07:29:26.937Z,55.62
2019-04-25T07:30:31.954Z,56.12
2019-04-25T07:31:26.866Z,54.81
2019-04-25T07:32:29.627Z,55.11
2019-04-25T07:33:27.318Z,55.32
2019-04-25T07:34:26.541Z,56.02
2019-04-25T07:35:25.418Z,56.12
2019-04-25T07:36:25.794Z,55.92
2019-04-25T07:37:26.076Z,56.23
2019-04-25T07:38:25.632Z,55.21
2019-04-25T07:39:25.623Z,55.74
2019-04-25T07:40:25.691Z,56.23
2019-04-25T07:41:26.027Z,55.21
2019-04-25T07:42:26.040Z,55.72
2019-04-25T07:43:25.868Z,55.32
2019-04-25T07:44:37.966Z,55.62
2019-04-25T07:45:27.089Z,55.41
2019-04-25T07:46:26.279Z,55.41
2019-04-25T07:47:26.037Z,56.12
2019-04-25T07:48:26.691Z,55.82
2019-04-25T07:49:26.706Z,55.01
2019-04-25T07:50:26.840Z,54.18
2019-04-25T07:51:26.736Z,53.58
2019-04-25T07:52:25.223Z,53.17
2019-04-25T07:53:28.071Z,53.47
2019-04-25T07:54:26.403Z,53.07
2019-04-25T07:55:25.182Z,53.78
2019-04-25T07:56:25.175Z,52.97
2019-04-25T07:57:25.165Z,52.87
2019-04-25T07:58:38.225Z,53.17
2019-04-25T07:59:27.388Z,53.38
2019-04-25T08:00:25.131Z,51.96
2019-04-25T08:01:25.119Z,52.76
2019-04-25T08:02:25.119Z,52.56
2019-04-25T08:03:25.094Z,52.36
2019-04-25T08:04:25.081Z,51.15
2019-04-25T08:05:25.080Z,51.13
2019-04-25T08:06:25.061Z,50.93
2019-04-25T08:07:25.044Z,52.44
2019-04-25T08:08:25.040Z,50.42
2019-04-25T08:09:25.027Z,51.03
2019-04-25T08:10:25.036Z,51.43
2019-04-25T08:11:25.004Z,50.02
2019-04-25T08:12:25.306Z,51.03
2019-04-25T08:13:24.981Z,51.43
2019-04-25T08:14:24.965Z,51.23
2019-04-25T08:15:24.953Z,50.93
2019-04-25T08:16:24.948Z,51.93
2019-04-25T08:17:24.943Z,50.82
2019-04-25T08:18:25.440Z,50.93
2019-04-25T08:19:24.926Z,50.80
2019-04-25T08:20:24.897Z,50.10
2019-04-25T08:21:24.884Z,51.20
2019-04-25T08:22:24.888Z,50.70
2019-04-25T08:23:24.865Z,49.79
2019-04-25T08:24:24.865Z,50.40
2019-04-25T08:25:24.846Z,49.57
2019-04-25T08:26:24.833Z,49.47
2019-04-25T08:27:24.820Z,50.37
2019-04-25T08:28:24.810Z,50.07
2019-04-25T08:29:25.443Z,49.77
2019-04-25T08:30:24.850Z,49.47
2019-04-25T08:31:24.792Z,48.94
2019-04-25T08:32:25.398Z,49.35
2019-04-25T08:33:24.756Z,49.44
2019-04-25T08:34:24.750Z,48.11
2019-04-25T08:35:24.744Z,48.01
2019-04-25T08:36:24.721Z,47.31
2019-04-25T08:37:24.711Z,46.80
2019-04-25T08:38:24.702Z,48.41
2019-04-25T08:39:24.689Z,47.81
2019-04-25T08:40:24.682Z,47.31
2019-04-25T08:41:24.663Z,48.01
2019-04-25T08:42:24.654Z,47.41
2019-04-25T08:43:32.556Z,46.40
2019-04-25T08:45:07.302Z,47.31
2019-04-25T08:46:07.272Z,46.40
2019-04-25T08:47:07.260Z,46.30
2019-04-25T08:48:07.258Z,47.20
2019-04-25T08:49:07.242Z,47.71
2019-04-25T08:50:07.233Z,46.08
2019-04-25T08:51:07.223Z,46.18
2019-04-25T08:52:07.208Z,44.47
2019-04-25T08:53:07.192Z,46.48
2019-04-25T08:54:07.190Z,46.18
2019-04-25T08:55:07.172Z,45.86
2019-04-25T08:56:07.172Z,43.72
2019-04-25T08:57:07.156Z,42.49
2019-04-25T08:58:07.140Z,43.20
2019-04-25T08:59:08.105Z,44.23
2019-04-25T09:00:07.158Z,44.83
2019-04-25T09:01:07.138Z,44.12
2019-04-25T09:02:07.097Z,45.05
2019-04-25T09:03:07.090Z,44.75
2019-04-25T09:04:07.076Z,43.95
2019-04-25T09:05:07.066Z,44.45
2019-04-25T09:06:07.071Z,44.12
2019-04-25T09:07:07.064Z,44.75
2019-04-25T09:08:07.034Z,45.35
2019-04-25T09:09:07.222Z,45.45
2019-04-25T09:10:07.049Z,45.45
2019-04-25T09:11:07.000Z,45.73
2019-04-25T09:12:06.994Z,44.95
2019-04-25T09:13:06.974Z,45.75
2019-04-25T09:14:06.962Z,45.95
2019-04-25T09:15:06.953Z,46.46
2019-04-25T09:16:06.948Z,45.23
2019-04-25T09:17:06.933Z,45.94
2019-04-25T09:18:07.011Z,43.42
2019-04-25T09:19:06.923Z,44.73
2019-04-25T09:20:07.006Z,42.11
2019-04-25T09:21:06.907Z,42.21
2019-04-25T09:22:06.942Z,42.40
2019-04-25T09:23:06.953Z,41.89
2019-04-25T09:24:06.890Z,43.80
2019-04-25T09:25:06.855Z,43.10
2019-04-25T09:26:06.856Z,43.10
2019-04-25T09:27:06.822Z,41.97
2019-04-25T09:28:06.819Z,43.48
2019-04-25T09:29:16.814Z,42.19
2019-04-25T09:30:07.800Z,42.18
2019-04-25T09:31:06.791Z,41.77
2019-04-25T09:32:06.767Z,40.47
2019-04-25T09:33:06.756Z,41.77
2019-04-25T09:34:06.759Z,41.47
2019-04-25T09:35:06.734Z,41.55
2019-04-25T09:36:06.933Z,41.25
2019-04-25T09:37:06.712Z,41.45
2019-04-25T09:38:06.705Z,42.05
2019-04-25T09:39:06.695Z,42.35
2019-04-25T09:40:06.677Z,42.46
2019-04-25T09:41:06.666Z,41.43
2019-04-25T09:42:06.665Z,41.13
2019-04-25T09:43:06.657Z,42.44
2019-04-25T09:44:06.638Z,42.24
2019-04-25T09:45:06.623Z,41.83
2019-04-25T09:46:06.641Z,42.63
2019-04-25T09:47:06.600Z,42.16
2019-04-25T09:48:06.593Z,41.75
2019-04-25T09:49:06.583Z,41.93
2019-04-25T09:50:06.587Z,42.44
2019-04-25T09:51:06.558Z,42.24
2019-04-25T09:52:06.555Z,43.24
2019-04-25T09:53:06.539Z,43.34
2019-04-25T09:54:06.526Z,42.13
2019-04-25T09:55:06.515Z,43.74
2019-04-25T09:56:06.501Z,43.32
2019-04-25T09:57:06.487Z,41.93
2019-04-25T09:58:06.489Z,42.44
2019-04-25T09:59:06.466Z,41.82
2019-04-25T10:00:06.455Z,42.02
2019-04-25T10:01:06.459Z,42.52
2019-04-25T10:02:06.435Z,42.82
2019-04-25T10:03:06.423Z,42.61
2019-04-25T10:04:06.409Z,41.51
2019-04-25T10:05:06.402Z,41.01
2019-04-25T10:06:06.397Z,39.91
2019-04-25T10:07:06.376Z,41.71
2019-04-25T10:08:06.363Z,41.51
2019-04-25T10:09:06.357Z,39.89
2019-04-25T10:10:06.348Z,39.31
2019-04-25T10:11:06.337Z,39.29
2019-04-25T10:12:06.332Z,39.18
2019-04-25T10:13:06.643Z,39.49
2019-04-25T10:14:06.303Z,39.89
2019-04-25T10:15:06.288Z,39.27
2019-04-25T10:16:13.420Z,36.41
2019-04-25T10:17:47.937Z,35.05
2019-04-25T10:18:47.911Z,33.54
2019-04-25T10:19:48.038Z,32.35
2019-04-25T10:20:47.892Z,33.66
2019-04-25T10:21:47.885Z,33.78
2019-04-25T10:22:47.875Z,34.80
2019-04-25T10:23:48.241Z,35.69
2019-04-25T10:24:58.886Z,35.91
2019-04-25T10:25:48.837Z,35.71
2019-04-25T10:26:48.152Z,36.51
2019-04-25T10:27:49.315Z,36.11
2019-04-25T10:28:47.805Z,36.71
2019-04-25T10:29:53.457Z,36.03
2019-04-25T10:30:49.187Z,36.63
2019-04-25T10:31:47.776Z,36.61
2019-04-25T10:32:48.045Z,36.91
2019-04-25T10:33:48.634Z,34.69
2019-04-25T10:34:47.737Z,35.60
2019-04-25T10:35:53.181Z,35.49
2019-04-25T10:36:49.004Z,35.69
2019-04-25T10:37:48.485Z,34.18
2019-04-25T10:39:01.982Z,30.66
2019-04-25T10:39:48.970Z,33.75
2019-04-25T10:40:47.673Z,30.25
2019-04-25T10:41:48.292Z,30.75
2019-04-25T10:42:49.593Z,32.26
2019-04-25T10:43:48.259Z,32.46
2019-04-25T10:44:48.339Z,33.68
2019-04-25T10:45:47.615Z,32.78
2019-04-25T10:46:48.486Z,33.68
2019-04-25T10:47:47.591Z,34.30
2019-04-25T10:48:48.045Z,33.70
2019-04-25T10:49:47.570Z,33.39
2019-04-25T10:50:48.429Z,34.00
2019-04-25T10:51:48.004Z,34.39
2019-04-25T10:52:48.368Z,35.80
2019-04-25T10:53:47.530Z,34.38
2019-04-25T10:54:47.942Z,33.65
2019-04-25T10:55:47.637Z,31.89
2019-04-25T10:56:48.377Z,28.83
2019-04-25T10:57:48.346Z,27.66
2019-04-25T10:58:47.992Z,26.32
2019-04-25T11:00:00.419Z,25.68
2019-04-25T11:00:48.679Z,25.95
2019-04-25T11:01:47.436Z,25.02
2019-04-25T11:02:47.526Z,24.62
2019-04-25T11:03:48.361Z,24.30
2019-04-25T11:04:48.833Z,23.79
2019-04-25T11:05:47.596Z,22.39
2019-04-25T11:06:47.377Z,22.56
2019-04-25T11:07:47.370Z,22.17
2019-04-25T11:08:47.362Z,22.45
2019-04-25T11:09:48.026Z,21.56
2019-04-25T11:10:49.016Z,20.01
2019-04-25T11:11:48.140Z,21.29
2019-04-25T11:12:47.339Z,20.90
2019-04-25T11:13:47.305Z,18.75
2019-04-25T11:14:47.293Z,19.42
2019-04-25T11:15:47.286Z,19.12
2019-04-25T11:16:48.303Z,17.93
2019-04-25T11:17:47.975Z,19.49
2019-04-25T11:18:47.619Z,17.24
2019-04-25T11:19:47.242Z,17.43
2019-04-25T11:20:47.226Z,17.24
2019-04-25T11:21:47.740Z,16.85
2019-04-25T11:22:47.283Z,17.24
2019-04-25T11:23:48.794Z,16.17
2019-04-25T11:24:47.187Z,15.78
2019-04-25T11:25:47.319Z,16.37
2019-04-25T11:26:50.133Z,17.24
2019-04-25T11:27:49.562Z,18.23
2019-04-25T11:28:47.140Z,17.24
2019-04-25T11:29:47.180Z,16.47
2019-04-25T11:30:47.119Z,17.28
2019-04-25T11:31:47.350Z,18.37
2019-04-25T11:32:47.938Z,19.38
2019-04-25T11:33:47.089Z,19.72
2019-04-25T11:34:47.315Z,21.72
2019-04-25T11:35:48.101Z,21.64
2019-04-25T11:36:47.055Z,22.34
2019-04-25T11:37:48.379Z,22.14
2019-04-25T11:38:47.400Z,24.33
2019-04-25T11:39:47.295Z,23.26
2019-04-25T11:40:49.327Z,25.08
2019-04-25T11:41:48.240Z,25.50
2019-04-25T11:42:47.139Z,25.91
2019-04-25T11:43:46.984Z,26.50
2019-04-25T11:44:46.965Z,26.10
2019-04-25T11:45:47.399Z,25.18
2019-04-25T11:46:46.950Z,25.42
2019-04-25T11:47:55.262Z,23.90
2019-04-25T11:49:28.595Z,23.88
2019-04-25T11:50:28.568Z,22.01
2019-04-25T11:52:10.212Z,22.52
2019-04-25T11:53:10.205Z,23.14
2019-04-25T11:54:10.190Z,24.33
2019-04-25T11:55:10.191Z,24.76
2019-04-25T11:56:10.176Z,26.06
2019-04-25T11:57:10.161Z,25.77
2019-04-25T11:58:10.148Z,26.59
2019-04-25T11:59:10.137Z,27.28
2019-04-25T12:00:21.599Z,26.50
2019-04-25T12:01:11.114Z,26.72
2019-04-25T12:02:10.107Z,27.51
2019-04-25T12:03:10.100Z,28.20
2019-04-25T12:04:10.087Z,26.53
2019-04-25T12:05:10.075Z,27.33
2019-04-25T12:06:11.300Z,27.62
2019-04-25T12:07:10.048Z,27.72
2019-04-25T12:08:10.044Z,26.94
2019-04-25T12:09:10.027Z,27.73
2019-04-25T12:10:10.021Z,29.13
2019-04-25T12:11:10.021Z,27.83
2019-04-25T12:12:09.993Z,28.43
2019-04-25T12:13:09.986Z,28.93
2019-04-25T12:14:09.979Z,28.34
2019-04-25T12:15:09.971Z,28.74
2019-04-25T12:16:09.954Z,28.34
2019-04-25T12:17:09.943Z,27.85
2019-04-25T12:18:09.933Z,28.85
2019-04-25T12:19:09.922Z,28.44
2019-04-25T12:20:09.914Z,26.56
2019-04-25T12:21:09.912Z,27.55
2019-04-25T12:22:09.892Z,26.94
2019-04-25T12:23:10.561Z,27.94
2019-04-25T12:24:09.864Z,28.13
2019-04-25T12:25:09.857Z,28.53
2019-04-25T12:26:09.849Z,28.63
2019-04-25T12:27:09.839Z,27.94
2019-04-25T12:28:09.830Z,27.73
2019-04-25T12:29:09.820Z,27.34
2019-04-25T12:30:09.807Z,27.34
2019-04-25T12:31:09.803Z,27.83
2019-04-25T12:32:09.791Z,27.73
2019-04-25T12:33:19.163Z,27.04
2019-04-25T12:34:10.758Z,27.24
2019-04-25T12:35:09.749Z,26.94
2019-04-25T12:36:09.738Z,26.94
2019-04-25T12:37:09.750Z,26.74
2019-04-25T12:38:09.724Z,27.73
2019-04-25T12:39:09.704Z,27.04
2019-04-25T12:40:09.690Z,27.14
2019-04-25T12:41:09.689Z,26.84
2019-04-25T12:42:09.679Z,26.94
2019-04-25T12:43:09.670Z,26.95
2019-04-25T12:44:09.670Z,26.65
2019-04-25T12:45:09.646Z,27.54
2019-04-25T12:46:09.635Z,26.84
2019-04-25T12:47:09.618Z,27.54
2019-04-25T12:48:09.608Z,27.94
2019-04-25T12:49:09.601Z,28.43
2019-04-25T12:50:09.582Z,26.25
2019-04-25T12:51:09.580Z,27.54
2019-04-25T12:52:09.562Z,26.94
2019-04-25T12:53:09.662Z,26.25
2019-04-25T12:54:09.541Z,26.44
2019-04-25T12:55:09.530Z,27.24
2019-04-25T12:56:09.527Z,26.84
2019-04-25T12:57:09.538Z,27.54
2019-04-25T12:58:09.498Z,26.94
2019-04-25T12:59:09.495Z,25.63
2019-04-25T13:00:09.477Z,25.05
2019-04-25T13:01:09.472Z,25.15
2019-04-25T13:02:09.453Z,24.95
2019-04-25T13:03:09.449Z,24.75
2019-04-25T13:04:09.437Z,26.34
2019-04-25T13:05:09.427Z,26.15